Florence Regional Airport Florence US
ICAO: KFLO
IATA: FLO
Category: Medium
Scheduled Services: Yes

Elevation: 146 ft
TransAlt. 18000 ft.

Airport Communications:
APP DEP:118.6
ATIS:123.625
CTAF:125.1
GND/CLNC DEL:121.9
ANDERSON RDO:122.6
TWR:125.1
UNICOM:122.95

KFLO Zoom In..

Runways:

(A) RW 01 length 6000 ft width 150 ft
---- / hdg 6

(B) RW 09 length 6502 ft width 150 ft
ILS 109.10 / hdg 89

(C) RW 19 length 6000 ft width 150 ft
---- / hdg 186

(D) RW 27 length 6502 ft width 150 ft
---- / hdg 269

Location; KFLO
Day. 20 / Time. 09.53 Zulu
* Altimeter: 30.29
* Temperature: 06° c. 42.8°f.
* Wind from: 010° Speed 04 kn.
Dewpoint: -01° c.
Visibility: 10 Statute Miles.
Clouds: Clear (automated report).

KFLO 200953Z 01004KT 10SM CLR 06/M01 A3029 RMK AO2 SLP254 T00561006


Wind From 010°
Speed 04 kn.

  YouTube Music Video
 
jpsmedia.com for Web Design  worldairports.se 2018   terms of use